createdAt,value
2023-11-20T00:01:08.816Z,8.32
2023-11-20T00:03:41.812Z,6.47
2023-11-20T00:06:16.265Z,11.30
2023-11-20T00:08:49.228Z,8.75
2023-11-20T00:11:22.290Z,9.73
2023-11-20T00:13:55.081Z,5.65
2023-11-20T00:16:28.462Z,11.05
2023-11-20T00:19:01.304Z,6.68
2023-11-20T00:21:36.505Z,5.72
2023-11-20T00:24:09.801Z,6.45
2023-11-20T00:26:42.513Z,11.63
2023-11-20T00:29:17.125Z,4.35
2023-11-20T00:31:50.151Z,8.00
2023-11-20T00:34:23.178Z,7.13
2023-11-20T00:36:57.442Z,10.00
2023-11-20T00:39:30.280Z,8.10
2023-11-20T00:42:03.080Z,6.57
2023-11-20T00:44:37.190Z,8.23
2023-11-20T00:47:10.210Z,10.82
2023-11-20T00:49:43.279Z,9.93
2023-11-20T00:52:17.697Z,8.52
2023-11-20T00:54:50.484Z,11.43
2023-11-20T00:57:23.431Z,9.95
2023-11-20T00:59:56.669Z,11.00
2023-11-20T01:02:30.022Z,6.25
2023-11-20T01:05:02.997Z,12.93
2023-11-20T01:07:37.084Z,13.02
2023-11-20T01:10:10.469Z,11.48
2023-11-20T01:12:43.272Z,9.52
2023-11-20T01:15:16.134Z,11.50
2023-11-20T01:17:49.945Z,10.32
2023-11-20T01:20:22.737Z,10.05
2023-11-20T01:22:57.009Z,11.82
2023-11-20T01:25:32.589Z,12.60
2023-11-20T01:28:05.938Z,10.07
2023-11-20T01:30:39.206Z,12.85
2023-11-20T01:33:15.246Z,11.50
2023-11-20T01:35:50.599Z,10.15
2023-11-20T01:38:24.831Z,15.73
2023-11-20T01:43:30.837Z,11.27
2023-11-20T01:46:08.383Z,10.90
2023-11-20T01:48:41.599Z,10.88
2023-11-20T01:51:14.966Z,10.25
2023-11-20T01:53:50.148Z,10.07
2023-11-20T01:56:22.922Z,13.48
2023-11-20T01:58:56.414Z,12.00
2023-11-20T02:01:29.391Z,11.00
2023-11-20T02:04:03.938Z,10.38
2023-11-20T02:06:36.758Z,9.93
2023-11-20T02:09:11.852Z,11.95
2023-11-20T02:11:45.881Z,12.98
2023-11-20T02:14:18.635Z,12.13
2023-11-20T02:16:51.458Z,11.27
2023-11-20T02:19:24.976Z,12.20
2023-11-20T02:21:58.707Z,11.68
2023-11-20T02:24:33.183Z,12.20
2023-11-20T02:27:15.460Z,12.07
2023-11-20T02:29:53.180Z,10.38
2023-11-20T02:32:25.990Z,10.70
2023-11-20T02:34:58.962Z,11.55
2023-11-20T02:37:31.846Z,7.38
2023-11-20T02:40:07.149Z,7.70
2023-11-20T02:42:40.533Z,10.20
2023-11-20T02:45:15.000Z,9.63
2023-11-20T02:47:47.834Z,12.50
2023-11-20T02:50:20.841Z,12.25
2023-11-20T02:52:54.303Z,11.13
2023-11-20T02:55:27.366Z,13.38
2023-11-20T02:58:01.020Z,11.32
2023-11-20T03:00:35.150Z,9.77
2023-11-20T03:03:08.893Z,14.90
2023-11-20T03:05:41.900Z,13.48
2023-11-20T03:08:15.040Z,12.15
2023-11-20T03:10:47.946Z,14.23
2023-11-20T03:13:24.664Z,13.23
2023-11-20T03:15:58.938Z,12.07
2023-11-20T03:18:32.504Z,9.93
2023-11-20T03:21:05.912Z,11.90
2023-11-20T03:23:38.676Z,16.42
2023-11-20T03:26:11.663Z,12.27
2023-11-20T03:28:44.486Z,12.52
2023-11-20T03:31:18.744Z,8.65
2023-11-20T03:33:51.969Z,10.30
2023-11-20T03:36:28.364Z,12.48
2023-11-20T03:39:01.253Z,8.02
2023-11-20T03:41:34.540Z,10.50
2023-11-20T03:44:07.813Z,14.88
2023-11-20T03:46:42.141Z,10.68
2023-11-20T03:49:15.131Z,10.40
2023-11-20T03:51:48.069Z,12.18
2023-11-20T03:54:21.223Z,11.90
2023-11-20T03:56:53.882Z,8.98
2023-11-20T03:59:26.697Z,12.32
2023-11-20T04:02:01.225Z,12.30
2023-11-20T04:04:34.659Z,9.70
2023-11-20T04:07:08.209Z,13.77
2023-11-20T04:09:41.233Z,15.80
2023-11-20T04:12:13.949Z,10.02
2023-11-20T04:14:46.581Z,9.52
2023-11-20T04:17:21.928Z,9.98
2023-11-20T04:19:58.370Z,9.77
2023-11-20T04:22:31.741Z,8.43
2023-11-20T04:25:06.449Z,8.70
2023-11-20T04:27:39.531Z,8.95
2023-11-20T04:30:12.574Z,9.30
2023-11-20T04:32:47.136Z,12.93
2023-11-20T04:35:20.005Z,10.50
2023-11-20T04:37:52.881Z,9.57
2023-11-20T04:40:26.386Z,7.38
2023-11-20T04:42:59.071Z,7.65
2023-11-20T04:45:32.785Z,7.85
2023-11-20T04:48:07.473Z,10.13
2023-11-20T04:50:40.217Z,12.55
2023-11-20T04:53:13.545Z,12.27
2023-11-20T04:55:46.413Z,11.40
2023-11-20T04:58:23.213Z,8.88
2023-11-20T05:00:56.283Z,10.63
2023-11-20T05:03:30.756Z,16.25
2023-11-20T05:06:04.296Z,12.32
2023-11-20T05:08:37.215Z,14.38
2023-11-20T05:11:10.219Z,11.68
2023-11-20T05:13:43.275Z,11.13
2023-11-20T05:16:16.184Z,12.32
2023-11-20T05:18:50.776Z,12.88
2023-11-20T05:21:23.502Z,14.35
2023-11-20T05:23:56.330Z,15.05
2023-11-20T05:26:29.011Z,10.20
2023-11-20T05:29:02.317Z,13.20
2023-11-20T05:31:35.228Z,16.90
2023-11-20T05:34:10.050Z,12.10
2023-11-20T05:36:43.156Z,12.60
2023-11-20T05:39:18.831Z,19.67
2023-11-20T05:41:51.855Z,12.55
2023-11-20T05:44:24.695Z,11.93
2023-11-20T05:46:58.195Z,9.15
2023-11-20T05:49:32.368Z,15.38
2023-11-20T05:52:05.937Z,16.77
2023-11-20T05:54:39.119Z,11.63
2023-11-20T05:57:12.316Z,9.05
2023-11-20T05:59:48.720Z,10.48
2023-11-20T06:02:21.509Z,12.52
2023-11-20T06:04:55.544Z,13.65
2023-11-20T06:07:28.412Z,11.43
2023-11-20T06:10:01.349Z,14.07
2023-11-20T06:12:34.094Z,11.77
2023-11-20T06:15:07.389Z,13.45
2023-11-20T06:17:40.700Z,11.40
2023-11-20T06:20:15.530Z,9.48
2023-11-20T06:22:48.251Z,14.45
2023-11-20T06:25:21.868Z,13.18
2023-11-20T06:27:54.721Z,10.70
2023-11-20T06:30:27.898Z,13.48
2023-11-20T06:33:00.650Z,13.60
2023-11-20T06:35:34.795Z,11.52
2023-11-20T06:38:08.127Z,12.23
2023-11-20T06:40:41.136Z,12.25
2023-11-20T06:43:14.649Z,13.23
2023-11-20T06:45:47.622Z,11.98
2023-11-20T06:48:20.372Z,14.43
2023-11-20T06:50:54.804Z,14.30
2023-11-20T06:53:28.177Z,14.63
2023-11-20T06:56:00.885Z,9.25
2023-11-20T06:58:35.334Z,10.57
2023-11-20T07:01:09.217Z,12.95
2023-11-20T07:03:44.239Z,15.38
2023-11-20T07:06:22.342Z,10.90
2023-11-20T07:08:56.440Z,14.30
2023-11-20T07:11:29.204Z,16.67
2023-11-20T07:14:01.847Z,11.63
2023-11-20T07:16:34.636Z,13.73
2023-11-20T07:19:08.221Z,15.18
2023-11-20T07:21:45.154Z,13.32
2023-11-20T07:24:18.140Z,15.38
2023-11-20T07:26:50.871Z,11.07
2023-11-20T07:29:23.549Z,13.77
2023-11-20T07:31:56.807Z,20.88
2023-11-20T07:34:29.764Z,15.77
2023-11-20T07:37:03.863Z,11.32
2023-11-20T07:39:37.927Z,13.75
2023-11-20T07:42:10.701Z,15.63
2023-11-20T07:44:45.016Z,13.60
2023-11-20T07:47:17.744Z,10.75
2023-11-20T07:49:50.608Z,18.42
2023-11-20T07:52:25.785Z,17.30
2023-11-20T07:54:58.504Z,15.02
2023-11-20T07:57:31.164Z,12.73
2023-11-20T08:00:05.523Z,14.52
2023-11-20T08:02:46.826Z,15.00
2023-11-20T08:05:20.792Z,14.05
2023-11-20T08:07:55.335Z,16.97
2023-11-20T08:10:28.305Z,14.35
2023-11-20T08:13:01.268Z,13.23
2023-11-20T08:15:34.062Z,14.75
2023-11-20T08:18:07.743Z,12.27
2023-11-20T08:20:40.947Z,21.58
2023-11-20T08:23:15.088Z,13.93
2023-11-20T08:25:47.759Z,10.23
2023-11-20T08:28:20.580Z,20.63
2023-11-20T08:30:53.627Z,14.43
2023-11-20T08:33:26.659Z,19.23
2023-11-20T08:35:59.425Z,14.07
2023-11-20T08:38:34.176Z,16.00
2023-11-20T08:41:06.933Z,43.53
2023-11-20T08:43:41.034Z,21.13
2023-11-20T08:46:15.987Z,14.85
2023-11-20T08:48:49.250Z,16.95
2023-11-20T08:51:22.250Z,17.40
2023-11-20T08:53:56.792Z,15.68
2023-11-20T08:56:29.576Z,16.15
2023-11-20T08:59:02.251Z,11.65
2023-11-20T09:01:35.966Z,15.90
2023-11-20T09:04:11.354Z,19.88
2023-11-20T09:06:45.384Z,15.23
2023-11-20T09:09:19.843Z,15.87
2023-11-20T09:14:25.727Z,14.43
2023-11-20T09:16:58.951Z,16.60
2023-11-20T09:19:31.935Z,20.38
2023-11-20T09:22:05.709Z,14.90
2023-11-20T09:24:41.389Z,16.95
2023-11-20T09:27:15.620Z,20.13
2023-11-20T09:29:48.327Z,14.38
2023-11-20T09:32:21.153Z,13.43
2023-11-20T09:34:53.854Z,16.48
2023-11-20T09:37:28.853Z,29.30
2023-11-20T09:40:05.711Z,15.88
2023-11-20T09:42:40.952Z,18.88
2023-11-20T09:45:28.419Z,14.93
2023-11-20T09:48:01.866Z,15.63
2023-11-20T09:50:36.349Z,18.25
2023-11-20T09:53:10.512Z,24.92
2023-11-20T09:55:44.890Z,26.20
2023-11-20T09:58:17.693Z,29.67
2023-11-20T10:00:51.474Z,25.90
2023-11-20T10:03:24.925Z,13.27
2023-11-20T10:06:00.499Z,16.73
2023-11-20T10:08:35.923Z,18.73
2023-11-20T10:11:12.810Z,16.77
2023-11-20T10:13:45.655Z,16.58
2023-11-20T10:16:20.952Z,14.52
2023-11-20T10:18:55.020Z,17.15
2023-11-20T10:21:30.163Z,14.02
2023-11-20T10:24:03.670Z,14.30
2023-11-20T10:26:38.372Z,18.07
2023-11-20T10:29:11.293Z,12.87
2023-11-20T10:31:44.780Z,14.48
2023-11-20T10:34:19.324Z,12.80
2023-11-20T10:37:05.151Z,15.57
2023-11-20T10:39:38.564Z,16.02
2023-11-20T10:42:14.405Z,13.80
2023-11-20T10:44:47.402Z,16.05
2023-11-20T10:47:21.357Z,15.85
2023-11-20T10:49:54.726Z,12.27
2023-11-20T10:52:30.373Z,15.70
2023-11-20T10:55:03.449Z,12.63
2023-11-20T10:57:38.175Z,13.43
2023-11-20T11:00:13.530Z,13.70
2023-11-20T11:02:46.839Z,15.95
2023-11-20T11:05:21.188Z,12.27
2023-11-20T11:07:55.020Z,13.10
2023-11-20T11:10:28.569Z,13.90
2023-11-20T11:13:02.998Z,14.02
2023-11-20T11:15:36.515Z,11.60
2023-11-20T11:18:10.438Z,13.02
2023-11-20T11:20:45.158Z,9.27
2023-11-20T11:23:24.361Z,13.48
2023-11-20T11:26:01.828Z,13.57
2023-11-20T11:28:35.904Z,11.25
2023-11-20T11:46:20.527Z,11.95
2023-11-20T12:20:14.736Z,11.25
2023-11-20T12:38:57.700Z,10.77
2023-11-20T12:41:31.128Z,11.07
2023-11-20T12:44:04.492Z,10.32
2023-11-20T12:46:37.318Z,11.05
2023-11-20T12:49:10.638Z,12.30
2023-11-20T12:51:43.743Z,12.40
2023-11-20T12:54:19.554Z,14.02
2023-11-20T12:56:53.756Z,11.50
2023-11-20T12:59:26.548Z,10.70
2023-11-20T13:01:59.564Z,8.63
2023-11-20T13:04:35.647Z,10.57
2023-11-20T13:07:10.356Z,6.85
2023-11-20T13:09:44.414Z,6.75
2023-11-20T13:12:18.420Z,11.63
2023-11-20T13:15:00.903Z,10.10
2023-11-20T13:17:35.827Z,9.95
2023-11-20T13:20:23.660Z,10.57
2023-11-20T13:22:56.857Z,8.43
2023-11-20T13:25:31.068Z,9.82
2023-11-20T13:28:05.681Z,9.10
2023-11-20T13:30:54.044Z,10.05
2023-11-20T13:33:27.466Z,10.77
2023-11-20T13:36:01.000Z,7.63
2023-11-20T13:38:34.339Z,5.85
2023-11-20T13:41:09.710Z,8.10
2023-11-20T13:43:43.083Z,9.05
2023-11-20T13:46:16.540Z,5.95
2023-11-20T13:48:49.239Z,6.80
2023-11-20T13:51:21.899Z,7.60
2023-11-20T13:53:54.993Z,5.20
2023-11-20T13:56:29.015Z,6.13
2023-11-20T13:59:01.886Z,5.88
2023-11-20T14:01:34.773Z,5.78
2023-11-20T14:04:10.610Z,9.23
2023-11-20T14:06:43.835Z,5.18
2023-11-20T14:09:16.612Z,6.03
2023-11-20T14:11:53.239Z,7.38
2023-11-20T14:14:27.605Z,7.57
2023-11-20T14:17:00.334Z,6.40
2023-11-20T14:19:33.689Z,6.43
2023-11-20T14:22:06.725Z,7.63
2023-11-20T14:24:39.860Z,5.15
2023-11-20T14:27:14.246Z,6.05
2023-11-20T14:29:46.944Z,5.40
2023-11-20T14:32:19.776Z,9.02
2023-11-20T14:34:52.560Z,7.85
2023-11-20T14:37:25.256Z,8.13
2023-11-20T14:39:58.129Z,10.45
2023-11-20T14:42:32.750Z,4.72
2023-11-20T14:47:40.129Z,4.93
2023-11-20T14:50:14.469Z,5.13
2023-11-20T14:52:48.577Z,5.50
2023-11-20T14:55:21.590Z,10.52
2023-11-20T14:57:55.701Z,15.90
2023-11-20T15:00:28.503Z,8.88
2023-11-20T15:03:01.365Z,9.27
2023-11-20T15:05:34.827Z,10.48
2023-11-20T15:08:07.553Z,5.50
2023-11-20T15:10:40.665Z,6.93
2023-11-20T15:13:14.854Z,8.98
2023-11-20T15:15:47.698Z,4.68
2023-11-20T15:18:21.759Z,7.20
2023-11-20T15:20:54.465Z,8.45
2023-11-20T15:23:27.824Z,8.32
2023-11-20T15:26:00.851Z,7.35
2023-11-20T15:28:42.517Z,7.18
2023-11-20T15:31:18.073Z,10.50
2023-11-20T15:33:53.921Z,8.05
2023-11-20T15:36:29.409Z,5.35
2023-11-20T15:39:05.358Z,10.18
2023-11-20T15:41:39.902Z,7.28
2023-11-20T15:44:13.906Z,8.48
2023-11-20T15:46:49.252Z,8.10
2023-11-20T15:49:22.250Z,11.30
2023-11-20T15:51:55.047Z,7.00
2023-11-20T15:54:28.571Z,6.78
2023-11-20T15:57:01.273Z,8.23
2023-11-20T15:59:37.016Z,6.10
2023-11-20T16:02:10.726Z,7.15
2023-11-20T16:04:43.621Z,6.10
2023-11-20T16:07:17.037Z,6.72
2023-11-20T16:09:49.831Z,8.50
2023-11-20T16:12:22.567Z,6.38
2023-11-20T16:14:56.639Z,7.65
2023-11-20T16:17:29.486Z,9.60
2023-11-20T16:20:02.216Z,9.82
2023-11-20T16:22:34.939Z,8.05
2023-11-20T16:25:10.477Z,8.52
2023-11-20T16:27:43.404Z,12.63
2023-11-20T16:30:19.654Z,14.27
2023-11-20T16:32:52.432Z,13.13
2023-11-20T16:35:26.154Z,11.93
2023-11-20T16:38:02.272Z,11.20
2023-11-20T16:40:36.039Z,15.75
2023-11-20T16:43:09.069Z,11.97
2023-11-20T16:45:43.400Z,11.65
2023-11-20T16:48:17.153Z,10.68
2023-11-20T16:50:49.782Z,11.73
2023-11-20T16:53:22.834Z,9.02
2023-11-20T16:55:55.660Z,11.25
2023-11-20T16:58:28.588Z,11.90
2023-11-20T17:01:03.840Z,12.13
2023-11-20T17:03:36.642Z,12.02
2023-11-20T17:06:09.440Z,11.70
2023-11-20T17:08:43.964Z,12.57
2023-11-20T17:11:16.757Z,11.40
2023-11-20T17:13:49.623Z,12.23
2023-11-20T17:16:24.355Z,12.02
2023-11-20T17:18:57.178Z,12.70
2023-11-20T17:21:29.862Z,16.58
2023-11-20T17:24:02.558Z,14.00
2023-11-20T17:26:36.571Z,13.88
2023-11-20T17:29:10.064Z,16.70
2023-11-20T17:31:45.028Z,9.50
2023-11-20T17:37:16.189Z,9.80
2023-11-20T17:39:52.212Z,13.50
2023-11-20T17:42:24.902Z,11.73
2023-11-20T17:44:58.705Z,11.57
2023-11-20T17:47:33.156Z,15.07
2023-11-20T17:50:08.914Z,9.70
2023-11-20T17:52:41.788Z,9.80
2023-11-20T17:55:15.331Z,9.75
2023-11-20T17:57:48.125Z,12.10
2023-11-20T18:00:21.423Z,12.93
2023-11-20T18:02:55.842Z,9.85
2023-11-20T18:05:30.330Z,11.55
2023-11-20T18:08:03.096Z,12.38
2023-11-20T18:10:36.816Z,11.48
2023-11-20T18:13:09.710Z,9.38
2023-11-20T18:15:43.458Z,9.77
2023-11-20T18:18:18.103Z,9.82
2023-11-20T18:20:50.902Z,11.18
2023-11-20T18:23:23.586Z,11.93
2023-11-20T18:25:56.485Z,14.05
2023-11-20T18:28:29.681Z,13.35
2023-11-20T18:31:02.484Z,12.00
2023-11-20T18:33:37.092Z,10.65
2023-11-20T18:36:14.080Z,9.07
2023-11-20T18:38:46.783Z,10.65
2023-11-20T18:41:20.050Z,12.77
2023-11-20T18:43:52.723Z,12.27
2023-11-20T18:46:27.720Z,10.75
2023-11-20T18:49:02.067Z,10.18
2023-11-20T18:51:34.968Z,10.75
2023-11-20T18:54:08.033Z,13.82
2023-11-20T18:56:40.758Z,13.40
2023-11-20T18:59:13.923Z,9.70
2023-11-20T19:01:51.913Z,14.55
2023-11-20T19:04:26.169Z,9.82
2023-11-20T19:06:58.870Z,12.55
2023-11-20T19:09:32.136Z,14.27
2023-11-20T19:12:05.235Z,13.63
2023-11-20T19:14:38.963Z,17.77
2023-11-20T19:17:13.014Z,13.45
2023-11-20T19:19:47.231Z,13.43
2023-11-20T19:22:21.115Z,8.03
2023-11-20T19:24:54.134Z,8.98
2023-11-20T19:27:26.906Z,10.13
2023-11-20T19:30:01.894Z,11.20
2023-11-20T19:32:35.629Z,11.48
2023-11-20T19:35:10.098Z,12.00
2023-11-20T19:37:44.391Z,9.48
2023-11-20T19:40:17.925Z,9.95
2023-11-20T19:42:51.465Z,7.63
2023-11-20T19:45:26.078Z,9.88
2023-11-20T19:47:58.851Z,9.13
2023-11-20T19:50:32.951Z,9.75
2023-11-20T19:53:06.990Z,10.97
2023-11-20T19:55:40.737Z,8.87
2023-11-20T19:58:13.620Z,11.32
2023-11-20T20:00:46.395Z,14.95
2023-11-20T20:03:19.667Z,13.05
2023-11-20T20:05:54.014Z,10.75
2023-11-20T20:08:26.781Z,10.07
2023-11-20T20:11:00.792Z,12.52
2023-11-20T20:13:33.548Z,10.93
2023-11-20T20:16:07.313Z,10.15
2023-11-20T20:18:42.084Z,10.85
2023-11-20T20:21:16.533Z,8.38
2023-11-20T20:23:52.347Z,10.02
2023-11-20T20:26:31.743Z,9.35
2023-11-20T20:29:04.842Z,9.70
2023-11-20T20:31:38.804Z,9.85
2023-11-20T20:34:11.939Z,9.43
2023-11-20T20:36:46.156Z,10.27
2023-11-20T20:39:19.329Z,7.57
2023-11-20T20:41:52.432Z,9.43
2023-11-20T20:44:25.230Z,10.63
2023-11-20T20:46:58.657Z,10.45
2023-11-20T20:49:31.622Z,13.73
2023-11-20T20:52:06.190Z,13.23
2023-11-20T20:54:42.895Z,10.50
2023-11-20T20:57:15.646Z,9.85
2023-11-20T20:59:48.658Z,8.05
2023-11-20T21:02:21.737Z,8.68
2023-11-20T21:04:54.730Z,9.00
2023-11-20T21:07:29.562Z,9.18
2023-11-20T21:10:02.268Z,11.13
2023-11-20T21:12:35.372Z,7.72
2023-11-20T21:15:08.565Z,9.73
2023-11-20T21:17:43.361Z,10.25
2023-11-20T21:20:17.267Z,16.00
2023-11-20T21:22:51.407Z,11.45
2023-11-20T21:25:24.760Z,18.07
2023-11-20T21:27:58.438Z,15.40
2023-11-20T21:30:31.186Z,8.57
2023-11-20T21:33:05.150Z,12.80
2023-11-20T21:35:47.423Z,12.80
2023-11-20T21:38:24.871Z,11.98
2023-11-20T21:40:57.853Z,15.77
2023-11-20T21:43:30.562Z,13.88
2023-11-20T21:46:03.481Z,10.60
2023-11-20T21:48:36.273Z,10.25
2023-11-20T21:51:09.822Z,11.50
2023-11-20T21:53:43.960Z,11.23
2023-11-20T21:56:16.778Z,16.42
2023-11-20T21:58:50.994Z,12.98
2023-11-20T22:01:25.056Z,13.10
2023-11-20T22:03:58.376Z,13.57
2023-11-20T22:06:31.202Z,14.55
2023-11-20T22:09:05.606Z,12.98
2023-11-20T22:11:40.721Z,10.73
2023-11-20T22:16:47.042Z,13.20
2023-11-20T22:19:19.921Z,12.43
2023-11-20T22:21:52.757Z,16.92
2023-11-20T22:24:29.303Z,15.20
2023-11-20T22:27:01.977Z,12.93
2023-11-20T22:29:35.401Z,13.05
2023-11-20T22:32:09.125Z,16.10
2023-11-20T22:34:42.385Z,13.02
2023-11-20T22:37:16.576Z,12.15
2023-11-20T22:39:53.517Z,12.73
2023-11-20T22:42:26.288Z,16.20
2023-11-20T22:44:58.969Z,12.90
2023-11-20T22:47:31.696Z,13.80
2023-11-20T22:50:07.847Z,14.52
2023-11-20T22:52:40.704Z,11.05
2023-11-20T22:55:14.805Z,10.18
2023-11-20T22:57:47.983Z,12.07
2023-11-20T23:00:26.438Z,15.55
2023-11-20T23:02:59.684Z,12.35
2023-11-20T23:05:32.501Z,13.65
2023-11-20T23:08:05.417Z,14.35
2023-11-20T23:10:39.819Z,14.85
2023-11-20T23:13:13.370Z,14.65
2023-11-20T23:15:47.847Z,12.82
2023-11-20T23:18:21.378Z,16.00
2023-11-20T23:20:54.181Z,16.77
2023-11-20T23:23:27.749Z,14.98
2023-11-20T23:26:02.239Z,11.70
2023-11-20T23:28:36.280Z,13.43
2023-11-20T23:31:09.653Z,13.53
2023-11-20T23:33:43.934Z,15.93
2023-11-20T23:36:16.597Z,13.82
2023-11-20T23:38:49.306Z,14.75
2023-11-20T23:41:23.373Z,13.15
2023-11-20T23:43:56.121Z,15.90
2023-11-20T23:46:32.524Z,12.90
2023-11-20T23:49:08.176Z,11.50
2023-11-20T23:51:41.491Z,12.70
2023-11-20T23:54:14.250Z,13.70
2023-11-20T23:56:48.330Z,12.55
2023-11-20T23:59:21.522Z,15.05
